Aylesbury, United Kingdom
Current Conditions -  °F | °C
As of 5:50 AM on Friday 19 Dec 2014 (Local Time) from EGUB Reporting Station
Moderate Rain Moderate Rain  
Wind Chill: 52°   Ceiling: 1000
Heat Index: 52°   Visibility: 5mi
Dew Point: 50°   Wind: 9mph
Humidity: 94%   Direction: 280°W
Pressure: 29.8"   Gusts: NA
Location:  51.82°N, 0.82°W
Report Text: EGUB 190550Z 28008KT 8000 RA FEW008 OVC010 11/10 Q1009 GRN
Loading
Personal Weather Stations






























Interactive Weather Map New forecast layout! Learn more

10-Day Weather Forecast

Advertisements
Track Severe Weather on mobile